Time;durP1;ratioP1;P1;durP2;ratioP2;P2;SDS_P1;SDS_P2;PMS_P1;PMS_P2;Temp;Humidity;BMP_temperature;BMP_pressure;BME280_temperature;BME280_humidity;BME280_pressure;Samples;Min_cycle;Max_cycle;Signal;HPM_P1;HPM_P2
2023/11/26 00:02:38;0.00;0.00;0.62;0.00;0.00;0.62;3.10;1.90;;;19.80;26.50;;;;;;2272295;61;20362;-61
2023/11/26 00:05:22;0.00;0.00;0.62;0.00;0.00;0.62;4.20;2.17;;;19.80;26.50;;;;;;2272955;61;20481;-57
2023/11/26 00:08:07;0.00;0.00;0.62;0.00;0.00;0.62;3.03;1.93;;;19.80;26.50;;;;;;2272731;61;20817;-60
2023/11/26 00:10:51;0.00;0.00;0.62;0.00;0.00;0.62;3.17;2.20;;;19.70;26.40;;;;;;2272622;61;20357;-60
2023/11/26 00:13:37;0.00;0.00;0.62;0.00;0.00;0.62;2.93;2.00;;;19.70;26.40;;;;;;2272692;61;20439;-58
2023/11/26 00:16:21;0.00;0.00;0.62;0.00;0.00;0.62;2.97;1.90;;;19.80;26.50;;;;;;2272912;61;20362;-55
2023/11/26 00:19:07;0.00;0.00;0.62;0.00;0.00;0.62;2.97;1.83;;;19.70;26.40;;;;;;2272812;61;20944;-64
2023/11/26 00:21:51;0.00;0.00;0.62;0.00;0.00;0.62;2.00;1.40;;;19.80;26.50;;;;;;2269138;61;20366;-58
2023/11/26 00:24:36;0.00;0.00;0.62;0.00;0.00;0.62;2.60;1.80;;;19.70;26.40;;;;;;2272654;61;20864;-59
2023/11/26 00:27:21;0.00;0.00;0.62;0.00;0.00;0.62;2.60;1.60;;;19.70;26.40;;;;;;2272821;61;20451;-60
2023/11/26 00:30:09;0.00;0.00;0.62;0.00;0.00;0.62;3.33;2.23;;;19.80;26.50;;;;;;2272861;61;20374;-59
2023/11/26 00:32:54;0.00;0.00;0.62;0.00;0.00;0.62;2.60;1.73;;;19.70;26.40;;;;;;2271910;61;20435;-58
2023/11/26 00:35:39;0.00;0.00;0.62;0.00;0.00;0.62;2.67;2.00;;;19.70;26.40;;;;;;2272533;61;20396;-61
2023/11/26 00:38:23;0.00;0.00;0.62;0.00;0.00;0.62;2.00;1.40;;;19.80;26.50;;;;;;2272499;61;20932;-64
2023/11/26 00:41:08;0.00;0.00;0.62;0.00;0.00;0.62;3.40;1.87;;;19.70;26.40;;;;;;2269124;61;20420;-61
2023/11/26 00:43:52;0.00;0.00;0.62;0.00;0.00;0.62;3.40;2.13;;;19.70;26.40;;;;;;2272732;61;20389;-60
2023/11/26 00:46:38;0.00;0.00;0.62;0.00;0.00;0.62;3.93;2.10;;;19.70;26.40;;;;;;2268993;61;20484;-60
2023/11/26 00:49:23;0.00;0.00;0.62;0.00;0.00;0.62;2.40;1.47;;;19.70;26.40;;;;;;2269422;61;20898;-60
2023/11/26 00:52:07;0.00;0.00;0.62;0.00;0.00;0.62;2.50;2.00;;;19.70;26.40;;;;;;2272316;61;20436;-60
2023/11/26 00:54:52;0.00;0.00;0.62;0.00;0.00;0.62;2.43;1.70;;;19.70;26.40;;;;;;2272560;61;20405;-61
2023/11/26 00:57:37;0.00;0.00;0.62;0.00;0.00;0.62;2.50;1.90;;;19.70;26.40;;;;;;2269387;61;20768;-59
2023/11/26 01:00:22;0.00;0.00;0.62;0.00;0.00;0.62;2.67;1.80;;;19.70;26.40;;;;;;2269405;61;20378;-59
2023/11/26 01:03:08;0.00;0.00;0.62;0.00;0.00;0.62;3.30;2.20;;;19.70;26.40;;;;;;2271939;61;20386;-61
2023/11/26 01:05:54;0.00;0.00;0.62;0.00;0.00;0.62;2.43;1.63;;;19.70;26.40;;;;;;2272756;61;20771;-61
2023/11/26 01:08:39;0.00;0.00;0.62;0.00;0.00;0.62;2.63;1.93;;;19.70;26.40;;;;;;2272381;61;20424;-61
2023/11/26 01:11:23;0.00;0.00;0.62;0.00;0.00;0.62;2.20;1.50;;;19.70;26.40;;;;;;2269154;61;20366;-57
2023/11/26 01:14:08;0.00;0.00;0.62;0.00;0.00;0.62;4.20;1.50;;;19.70;26.40;;;;;;2269338;61;20772;-59
2023/11/26 01:16:52;0.00;0.00;0.62;0.00;0.00;0.62;2.37;1.83;;;19.70;26.40;;;;;;2272189;61;20366;-58
2023/11/26 01:19:38;0.00;0.00;0.62;0.00;0.00;0.62;2.40;1.70;;;19.70;26.40;;;;;;2272766;61;20917;-58
2023/11/26 01:22:24;0.00;0.00;0.62;0.00;0.00;0.62;2.70;1.87;;;19.70;26.40;;;;;;2269056;60;20405;-59
2023/11/26 01:25:09;0.00;0.00;0.62;0.00;0.00;0.62;2.50;1.90;;;19.70;26.40;;;;;;2269059;61;20762;-60
2023/11/26 01:27:54;0.00;0.00;0.62;0.00;0.00;0.62;2.80;1.60;;;19.70;26.40;;;;;;2272725;61;20784;-61
2023/11/26 01:30:42;0.00;0.00;0.62;0.00;0.00;0.62;3.20;1.70;;;19.60;26.30;;;;;;2265548;61;20382;-60
2023/11/26 01:33:27;0.00;0.00;0.62;0.00;0.00;0.62;2.43;1.40;;;19.70;26.40;;;;;;2272368;61;20808;-57
2023/11/26 01:36:13;0.00;0.00;0.62;0.00;0.00;0.62;3.00;1.97;;;19.60;26.30;;;;;;2272615;61;20820;-57
2023/11/26 01:38:58;0.00;0.00;0.62;0.00;0.00;0.62;2.03;1.53;;;19.60;26.30;;;;;;2272386;61;20390;-60
2023/11/26 01:41:43;0.00;0.00;0.62;0.00;0.00;0.62;2.90;1.77;;;19.60;26.30;;;;;;2268996;61;20357;-55
2023/11/26 01:44:27;0.00;0.00;0.62;0.00;0.00;0.62;2.27;1.80;;;19.60;26.30;;;;;;2272642;61;20442;-61
2023/11/26 01:47:13;0.00;0.00;0.62;0.00;0.00;0.62;2.20;1.60;;;19.60;26.30;;;;;;2269077;61;20389;-61
2023/11/26 01:49:58;0.00;0.00;0.62;0.00;0.00;0.62;2.50;1.90;;;19.60;26.40;;;;;;2272609;61;20386;-62
2023/11/26 01:52:45;0.00;0.00;0.62;0.00;0.00;0.62;2.30;1.50;;;19.60;26.30;;;;;;2268919;61;20974;-58
2023/11/26 01:55:30;0.00;0.00;0.62;0.00;0.00;0.62;2.93;2.37;;;19.60;26.30;;;;;;2269203;61;20410;-58
2023/11/26 01:58:15;0.00;0.00;0.62;0.00;0.00;0.62;3.07;1.50;;;19.60;26.30;;;;;;2272506;61;20925;-59
2023/11/26 02:01:00;0.00;0.00;0.62;0.00;0.00;0.62;2.60;1.70;;;19.60;26.30;;;;;;2273829;61;20443;-60
2023/11/26 02:03:46;0.00;0.00;0.62;0.00;0.00;0.62;2.93;1.37;;;19.60;26.30;;;;;;2272075;61;20882;-59
2023/11/26 02:06:31;0.00;0.00;0.62;0.00;0.00;0.62;2.20;1.37;;;19.60;26.30;;;;;;2275789;61;20384;-56
2023/11/26 02:09:18;0.00;0.00;0.62;0.00;0.00;0.62;2.07;1.50;;;19.60;26.30;;;;;;2275481;61;20393;-56
2023/11/26 02:12:08;0.00;0.00;0.62;0.00;0.00;0.62;2.20;1.60;;;19.60;26.30;;;;;;2274745;60;20657;-56
2023/11/26 02:14:53;0.00;0.00;0.62;0.00;0.00;0.62;2.50;1.43;;;19.60;26.30;;;;;;2266962;61;20413;-60
2023/11/26 02:17:37;0.00;0.00;0.62;0.00;0.00;0.62;2.37;1.60;;;19.60;26.40;;;;;;2275127;61;20370;-60
2023/11/26 02:20:23;0.00;0.00;0.62;0.00;0.00;0.62;2.40;1.50;;;19.60;26.30;;;;;;2272505;61;20386;-57
2023/11/26 02:23:07;0.00;0.00;0.62;0.00;0.00;0.62;1.97;1.17;;;19.60;26.30;;;;;;2272297;61;20765;-59
2023/11/26 02:25:53;0.00;0.00;0.62;0.00;0.00;0.62;2.90;1.67;;;19.60;26.30;;;;;;2272696;61;20365;-62
2023/11/26 02:28:42;0.00;0.00;0.62;0.00;0.00;0.62;2.30;1.63;;;19.60;26.30;;;;;;2275976;61;20385;-60
2023/11/26 02:31:27;0.00;0.00;0.62;0.00;0.00;0.62;2.33;1.67;;;19.60;26.30;;;;;;2273004;61;20377;-60
2023/11/26 02:34:12;0.00;0.00;0.62;0.00;0.00;0.62;1.90;1.27;;;19.60;26.30;;;;;;2276324;61;20420;-59
2023/11/26 02:36:56;0.00;0.00;0.62;0.00;0.00;0.62;3.00;1.77;;;19.60;26.40;;;;;;2272947;61;20373;-60
2023/11/26 02:39:41;0.00;0.00;0.62;0.00;0.00;0.62;2.20;1.40;;;19.60;26.30;;;;;;2276063;61;20410;-61
2023/11/26 02:42:27;0.00;0.00;0.62;0.00;0.00;0.62;3.00;1.40;;;19.60;26.30;;;;;;2272278;61;20369;-56
2023/11/26 02:45:12;0.00;0.00;0.62;0.00;0.00;0.62;2.00;1.30;;;19.60;26.30;;;;;;2275673;61;20456;-60
2023/11/26 02:47:56;0.00;0.00;0.62;0.00;0.00;0.62;2.53;1.40;;;19.60;26.30;;;;;;2273010;61;20423;-56
2023/11/26 02:50:42;0.00;0.00;0.62;0.00;0.00;0.62;1.90;1.30;;;19.60;26.30;;;;;;2276495;61;20381;-62
2023/11/26 02:53:27;0.00;0.00;0.62;0.00;0.00;0.62;2.40;1.60;;;19.60;26.30;;;;;;2275497;61;20394;-58
2023/11/26 02:56:13;0.00;0.00;0.62;0.00;0.00;0.62;1.80;1.20;;;19.60;26.30;;;;;;2276431;61;20377;-57
2023/11/26 02:58:59;0.00;0.00;0.62;0.00;0.00;0.62;2.17;1.30;;;19.60;26.30;;;;;;2272771;61;20538;-60
2023/11/26 03:01:44;0.00;0.00;0.62;0.00;0.00;0.62;3.70;1.73;;;19.60;26.30;;;;;;2272519;61;20358;-59
2023/11/26 03:04:29;0.00;0.00;0.62;0.00;0.00;0.62;2.13;1.30;;;19.50;26.30;;;;;;2276200;61;20390;-57
2023/11/26 03:07:16;0.00;0.00;0.62;0.00;0.00;0.62;2.00;1.20;;;19.50;26.30;;;;;;2275512;61;20367;-56
2023/11/26 03:13:20;0.00;0.00;0.62;0.00;0.00;0.62;1.80;1.20;;;19.50;26.30;;;;;;2275853;61;20369;-59
2023/11/26 03:16:07;0.00;0.00;0.62;0.00;0.00;0.62;2.07;1.00;;;19.50;26.30;;;;;;2275534;61;21020;-58
2023/11/26 03:18:53;0.00;0.00;0.62;0.00;0.00;0.62;1.73;1.20;;;19.50;26.80;;;;;;2276053;61;20386;-59
2023/11/26 03:21:40;0.00;0.00;0.62;0.00;0.00;0.62;3.10;1.53;;;19.50;26.30;;;;;;2272406;61;20534;-59
2023/11/26 03:24:25;0.00;0.00;0.62;0.00;0.00;0.62;1.90;1.30;;;19.50;26.30;;;;;;2276297;61;20481;-55
2023/11/26 03:27:12;0.00;0.00;0.62;0.00;0.00;0.62;1.87;1.13;;;19.50;26.30;;;;;;2275950;61;20401;-59
2023/11/26 03:29:59;0.00;0.00;0.62;0.00;0.00;0.62;1.83;1.00;;;19.50;26.30;;;;;;2272174;60;20389;-59
2023/11/26 03:32:45;0.00;0.00;0.62;0.00;0.00;0.62;2.70;1.30;;;19.50;26.30;;;;;;2275526;60;20398;-59
2023/11/26 03:35:30;0.00;0.00;0.62;0.00;0.00;0.62;1.77;1.27;;;19.50;26.80;;;;;;2276077;60;20382;-57
2023/11/26 03:38:16;0.00;0.00;0.62;0.00;0.00;0.62;1.73;1.20;;;19.50;26.30;;;;;;2275964;61;20886;-61
2023/11/26 03:41:01;0.00;0.00;0.62;0.00;0.00;0.62;2.57;1.70;;;19.50;26.30;;;;;;2273000;61;20396;-56
2023/11/26 03:43:45;0.00;0.00;0.62;0.00;0.00;0.62;1.70;1.20;;;19.50;26.30;;;;;;2275666;61;20358;-61
2023/11/26 03:46:32;0.00;0.00;0.62;0.00;0.00;0.62;2.57;1.50;;;19.50;26.30;;;;;;2272632;61;20366;-57
2023/11/26 03:49:18;0.00;0.00;0.62;0.00;0.00;0.62;1.80;1.20;;;19.50;26.80;;;;;;2272344;61;20386;-57
2023/11/26 03:52:04;0.00;0.00;0.62;0.00;0.00;0.62;2.93;1.50;;;19.50;26.30;;;;;;2272059;61;20926;-59
2023/11/26 03:54:49;0.00;0.00;0.62;0.00;0.00;0.62;1.70;1.00;;;19.50;26.30;;;;;;2275858;61;20416;-59
2023/11/26 03:57:33;0.00;0.00;0.62;0.00;0.00;0.62;2.77;1.10;;;19.50;26.30;;;;;;2272515;61;20390;-61
2023/11/26 04:00:18;0.00;0.00;0.62;0.00;0.00;0.62;1.90;1.23;;;19.50;26.30;;;;;;2275463;61;20382;-58
2023/11/26 04:03:03;0.00;0.00;0.62;0.00;0.00;0.62;1.80;1.30;;;19.50;26.30;;;;;;2272030;61;20355;-59
2023/11/26 04:05:49;0.00;0.00;0.62;0.00;0.00;0.62;1.80;1.10;;;19.50;26.30;;;;;;2272935;61;20380;-59
2023/11/26 04:08:33;0.00;0.00;0.62;0.00;0.00;0.62;2.00;1.00;;;19.50;26.30;;;;;;2272003;61;20918;-58
2023/11/26 04:11:20;0.00;0.00;0.62;0.00;0.00;0.62;1.73;1.07;;;19.50;26.30;;;;;;2276099;61;20443;-60
2023/11/26 04:14:04;0.00;0.00;0.62;0.00;0.00;0.62;1.87;1.10;;;19.50;26.30;;;;;;2274392;61;20362;-58
2023/11/26 04:16:49;0.00;0.00;0.62;0.00;0.00;0.62;2.20;1.30;;;19.50;26.30;;;;;;2272177;61;20400;-58
2023/11/26 04:19:34;0.00;0.00;0.62;0.00;0.00;0.62;2.27;1.10;;;19.50;26.80;;;;;;2272381;61;20400;-56
2023/11/26 04:22:20;0.00;0.00;0.62;0.00;0.00;0.62;1.87;1.20;;;19.50;26.30;;;;;;2274302;61;20358;-62
2023/11/26 04:25:06;0.00;0.00;0.62;0.00;0.00;0.62;1.97;1.10;;;19.50;26.30;;;;;;2271749;61;20776;-58
2023/11/26 04:27:51;0.00;0.00;0.62;0.00;0.00;0.62;2.00;1.13;;;19.50;26.30;;;;;;2275366;61;20776;-61
2023/11/26 04:30:36;0.00;0.00;0.62;0.00;0.00;0.62;2.07;1.20;;;19.40;26.20;;;;;;2274978;61;20382;-58
2023/11/26 04:33:21;0.00;0.00;0.62;0.00;0.00;0.62;1.50;0.83;;;19.40;26.20;;;;;;2274752;61;20477;-57
2023/11/26 04:36:06;0.00;0.00;0.62;0.00;0.00;0.62;1.73;1.07;;;19.40;26.20;;;;;;2274933;60;20419;-58
2023/11/26 04:38:53;0.00;0.00;0.62;0.00;0.00;0.62;1.97;1.10;;;19.40;26.20;;;;;;2274979;60;20405;-58
2023/11/26 04:41:38;0.00;0.00;0.62;0.00;0.00;0.62;2.00;1.00;;;19.40;26.70;;;;;;2274861;60;20369;-58
2023/11/26 04:44:22;0.00;0.00;0.62;0.00;0.00;0.62;2.33;1.37;;;19.40;26.20;;;;;;2274789;60;20362;-57
2023/11/26 04:47:08;0.00;0.00;0.62;0.00;0.00;0.62;1.60;1.00;;;19.40;26.20;;;;;;2275143;60;20416;-60
2023/11/26 04:49:58;0.00;0.00;0.62;0.00;0.00;0.62;1.83;1.30;;;19.40;26.20;;;;;;2274895;61;20389;-59
2023/11/26 04:52:42;0.00;0.00;0.62;0.00;0.00;0.62;1.63;1.00;;;19.40;26.20;;;;;;2274366;61;20856;-60
2023/11/26 04:55:28;0.00;0.00;0.62;0.00;0.00;0.62;2.20;1.00;;;19.40;26.20;;;;;;2275124;61;20813;-61
2023/11/26 04:58:13;0.00;0.00;0.62;0.00;0.00;0.62;2.10;1.20;;;19.40;26.20;;;;;;2274789;61;20392;-60
2023/11/26 05:00:57;0.00;0.00;0.62;0.00;0.00;0.62;2.07;1.03;;;19.40;26.20;;;;;;2275294;61;20358;-52
2023/11/26 05:03:42;0.00;0.00;0.62;0.00;0.00;0.62;1.60;1.00;;;19.40;26.20;;;;;;2271603;61;20891;-58
2023/11/26 05:06:27;0.00;0.00;0.62;0.00;0.00;0.62;1.50;0.90;;;19.40;26.20;;;;;;2271508;61;20461;-55
2023/11/26 05:09:12;0.00;0.00;0.62;0.00;0.00;0.62;1.67;1.00;;;19.40;26.20;;;;;;2275217;61;20381;-59
2023/11/26 05:12:02;0.00;0.00;0.62;0.00;0.00;0.62;1.70;1.00;;;19.40;26.20;;;;;;2274393;61;20381;-58
2023/11/26 05:14:47;0.00;0.00;0.62;0.00;0.00;0.62;1.60;1.00;;;19.40;26.20;;;;;;2274247;61;20413;-57
2023/11/26 05:17:31;0.00;0.00;0.62;0.00;0.00;0.62;1.40;0.90;;;19.40;26.20;;;;;;2271784;61;20405;-60
2023/11/26 05:20:16;0.00;0.00;0.62;0.00;0.00;0.62;1.70;0.90;;;19.40;26.20;;;;;;2274678;61;20377;-59
2023/11/26 05:23:01;0.00;0.00;0.62;0.00;0.00;0.62;2.00;1.10;;;19.40;26.20;;;;;;2274706;61;20839;-60
2023/11/26 05:25:46;0.00;0.00;0.62;0.00;0.00;0.62;1.60;0.90;;;19.40;26.20;;;;;;2275010;61;20393;-57
2023/11/26 05:28:32;0.00;0.00;0.62;0.00;0.00;0.62;1.70;1.10;;;19.40;26.20;;;;;;2271224;61;20366;-61
2023/11/26 05:31:17;0.00;0.00;0.62;0.00;0.00;0.62;1.83;1.20;;;19.40;26.20;;;;;;2274669;61;20380;-62
2023/11/26 05:34:01;0.00;0.00;0.62;0.00;0.00;0.62;1.80;1.40;;;19.40;26.20;;;;;;2275082;61;20423;-58
2023/11/26 05:36:46;0.00;0.00;0.62;0.00;0.00;0.62;1.50;1.03;;;19.40;26.20;;;;;;2271522;61;20453;-57
2023/11/26 05:39:31;0.00;0.00;0.62;0.00;0.00;0.62;2.03;1.40;;;19.40;26.20;;;;;;2275044;61;20390;-58
2023/11/26 05:42:15;0.00;0.00;0.62;0.00;0.00;0.62;1.87;1.00;;;19.40;26.20;;;;;;2274387;61;20447;-58
2023/11/26 05:45:01;0.00;0.00;0.62;0.00;0.00;0.62;1.50;1.00;;;19.30;26.10;;;;;;2274903;61;20363;-59
2023/11/26 05:47:46;0.00;0.00;0.62;0.00;0.00;0.62;1.60;1.10;;;19.40;26.20;;;;;;2274658;61;20374;-58
2023/11/26 05:50:30;0.00;0.00;0.62;0.00;0.00;0.62;2.07;1.37;;;19.40;26.20;;;;;;2274392;60;20960;-59
2023/11/26 05:53:15;0.00;0.00;0.62;0.00;0.00;0.62;1.50;1.00;;;19.40;26.20;;;;;;2274498;61;20386;-57
2023/11/26 05:56:00;0.00;0.00;0.62;0.00;0.00;0.62;1.60;1.00;;;19.40;26.20;;;;;;2274592;60;20366;-61
2023/11/26 05:58:45;0.00;0.00;0.62;0.00;0.00;0.62;2.03;1.20;;;19.40;26.20;;;;;;2274945;61;20473;-61
2023/11/26 06:01:31;0.00;0.00;0.62;0.00;0.00;0.62;2.67;1.10;;;19.40;26.20;;;;;;2275716;61;20357;-59
2023/11/26 06:04:15;0.00;0.00;0.62;0.00;0.00;0.62;2.00;1.17;;;19.40;26.20;;;;;;2275588;61;20366;-59
2023/11/26 06:07:00;0.00;0.00;0.62;0.00;0.00;0.62;1.73;1.07;;;19.40;26.20;;;;;;2275360;61;20358;-59
2023/11/26 06:09:45;0.00;0.00;0.62;0.00;0.00;0.62;1.80;1.10;;;19.30;26.10;;;;;;2272077;61;20381;-60
2023/11/26 06:12:31;0.00;0.00;0.62;0.00;0.00;0.62;1.90;1.00;;;19.40;26.20;;;;;;2274863;61;20950;-58
2023/11/26 06:15:16;0.00;0.00;0.62;0.00;0.00;0.62;2.30;1.13;;;19.30;26.10;;;;;;2275524;61;20897;-56
2023/11/26 06:18:03;0.00;0.00;0.62;0.00;0.00;0.62;1.77;1.10;;;19.40;26.20;;;;;;2275411;61;20366;-62
2023/11/26 06:20:48;0.00;0.00;0.62;0.00;0.00;0.62;1.80;1.13;;;19.30;26.20;;;;;;2275223;61;20370;-56
2023/11/26 06:23:32;0.00;0.00;0.62;0.00;0.00;0.62;2.13;1.10;;;19.30;26.10;;;;;;2271789;61;20362;-60
2023/11/26 06:26:17;0.00;0.00;0.62;0.00;0.00;0.62;1.60;1.00;;;19.30;26.10;;;;;;2273854;61;20420;-61
2023/11/26 06:29:03;0.00;0.00;0.62;0.00;0.00;0.62;1.87;1.20;;;19.30;26.10;;;;;;2272877;61;20381;-61
2023/11/26 06:31:48;0.00;0.00;0.62;0.00;0.00;0.62;1.80;1.23;;;19.30;26.60;;;;;;2272887;61;20446;-60
2023/11/26 06:34:33;0.00;0.00;0.62;0.00;0.00;0.62;1.87;1.37;;;19.30;26.10;;;;;;2272776;61;20358;-62
2023/11/26 06:37:18;0.00;0.00;0.62;0.00;0.00;0.62;1.73;1.10;;;19.30;26.10;;;;;;2273205;61;20779;-57
2023/11/26 06:40:05;0.00;0.00;0.62;0.00;0.00;0.62;1.77;1.10;;;19.30;26.10;;;;;;2272970;61;20421;-60
2023/11/26 06:42:50;0.00;0.00;0.62;0.00;0.00;0.62;1.53;0.90;;;19.30;26.10;;;;;;2272481;61;20566;-62
2023/11/26 06:45:35;0.00;0.00;0.62;0.00;0.00;0.62;1.90;1.10;;;19.30;26.10;;;;;;2272966;61;20852;-60
2023/11/26 06:48:19;0.00;0.00;0.62;0.00;0.00;0.62;2.00;1.20;;;19.30;26.10;;;;;;2272934;61;20913;-58
2023/11/26 06:51:09;0.00;0.00;0.62;0.00;0.00;0.62;2.47;1.20;;;19.30;26.10;;;;;;2272517;60;20426;-58
2023/11/26 06:53:54;0.00;0.00;0.62;0.00;0.00;0.62;1.73;1.10;;;19.30;26.10;;;;;;2269340;61;20401;-59
2023/11/26 06:56:39;0.00;0.00;0.62;0.00;0.00;0.62;1.80;1.07;;;19.30;26.20;;;;;;2272498;60;20401;-61
2023/11/26 06:59:23;0.00;0.00;0.62;0.00;0.00;0.62;1.80;1.10;;;19.30;26.10;;;;;;2269696;61;20808;-58
2023/11/26 07:02:11;0.00;0.00;0.62;0.00;0.00;0.62;1.50;1.00;;;19.30;26.10;;;;;;2272529;60;20871;-59
2023/11/26 07:04:56;0.00;0.00;0.62;0.00;0.00;0.62;1.43;0.97;;;19.30;26.10;;;;;;2272645;60;20853;-58
2023/11/26 07:07:42;0.00;0.00;0.62;0.00;0.00;0.62;1.80;1.20;;;19.30;26.10;;;;;;2272847;60;20407;-62
2023/11/26 07:10:26;0.00;0.00;0.62;0.00;0.00;0.62;1.57;0.90;;;19.30;26.10;;;;;;2272937;60;20394;-60
2023/11/26 07:13:11;0.00;0.00;0.62;0.00;0.00;0.62;1.63;1.00;;;19.30;26.10;;;;;;2272259;61;20466;-61
2023/11/26 07:15:55;0.00;0.00;0.62;0.00;0.00;0.62;2.30;1.30;;;19.30;26.10;;;;;;2272890;61;20981;-62
2023/11/26 07:18:40;0.00;0.00;0.62;0.00;0.00;0.62;3.13;1.13;;;19.30;26.10;;;;;;2272644;61;20390;-60
2023/11/26 07:21:24;0.00;0.00;0.62;0.00;0.00;0.62;1.80;1.23;;;19.30;26.10;;;;;;2272728;61;20377;-61
2023/11/26 07:24:11;0.00;0.00;0.62;0.00;0.00;0.62;3.37;2.13;;;19.30;26.10;;;;;;2272830;61;20390;-60
2023/11/26 07:26:55;0.00;0.00;0.62;0.00;0.00;0.62;1.90;1.30;;;19.30;26.10;;;;;;2271194;61;20375;-58
2023/11/26 07:29:40;0.00;0.00;0.62;0.00;0.00;0.62;2.17;1.37;;;19.30;26.10;;;;;;2272682;61;20417;-62
2023/11/26 07:32:26;0.00;0.00;0.62;0.00;0.00;0.62;2.13;1.43;;;19.30;26.10;;;;;;2272540;61;20497;-61
2023/11/26 07:35:11;0.00;0.00;0.62;0.00;0.00;0.62;2.00;1.43;;;19.30;26.10;;;;;;2272549;61;20362;-59
2023/11/26 07:37:56;0.00;0.00;0.62;0.00;0.00;0.62;2.53;1.63;;;19.30;26.10;;;;;;2272798;61;20362;-63
2023/11/26 07:40:44;0.00;0.00;0.62;0.00;0.00;0.62;3.20;1.80;;;19.30;26.10;;;;;;2272952;61;20358;-61
2023/11/26 07:43:28;0.00;0.00;0.62;0.00;0.00;0.62;3.47;2.40;;;19.30;26.10;;;;;;2272497;61;20362;-58
2023/11/26 07:46:14;0.00;0.00;0.62;0.00;0.00;0.62;3.27;1.83;;;19.30;26.10;;;;;;2272986;61;20357;-57
2023/11/26 07:48:58;0.00;0.00;0.62;0.00;0.00;0.62;2.90;1.97;;;19.30;26.20;;;;;;2272420;61;20386;-59
2023/11/26 07:51:43;0.00;0.00;0.62;0.00;0.00;0.62;3.17;2.20;;;19.30;26.10;;;;;;2272485;61;20382;-58
2023/11/26 07:54:28;0.00;0.00;0.62;0.00;0.00;0.62;4.30;2.60;;;19.30;26.10;;;;;;2272370;61;20802;-59
2023/11/26 07:57:15;0.00;0.00;0.62;0.00;0.00;0.62;2.47;1.80;;;19.30;26.20;;;;;;2272392;61;20397;-59
2023/11/26 08:00:00;0.00;0.00;0.62;0.00;0.00;0.62;2.40;1.70;;;19.30;26.10;;;;;;2272832;61;20466;-56
2023/11/26 08:02:45;0.00;0.00;0.62;0.00;0.00;0.62;2.80;2.20;;;19.20;26.00;;;;;;2272412;61;20409;-58
2023/11/26 08:05:30;0.00;0.00;0.62;0.00;0.00;0.62;2.80;1.90;;;19.30;26.60;;;;;;2272918;61;20477;-60
2023/11/26 08:08:20;0.00;0.00;0.62;0.00;0.00;0.62;3.03;2.23;;;19.30;26.10;;;;;;2272701;61;20385;-60
2023/11/26 08:11:07;0.00;0.00;0.62;0.00;0.00;0.62;3.20;2.10;;;19.30;26.20;;;;;;2272571;61;20802;-56
2023/11/26 08:13:53;0.00;0.00;0.62;0.00;0.00;0.62;3.37;2.23;;;19.30;26.10;;;;;;2272406;60;20420;-60
2023/11/26 08:16:38;0.00;0.00;0.62;0.00;0.00;0.62;3.07;2.30;;;19.30;26.10;;;;;;2272769;60;20408;-63
2023/11/26 08:19:25;0.00;0.00;0.62;0.00;0.00;0.62;4.50;2.30;;;19.30;26.10;;;;;;2272175;60;20435;-56
2023/11/26 08:22:11;0.00;0.00;0.62;0.00;0.00;0.62;3.97;2.50;;;19.30;26.10;;;;;;2269260;61;20463;-58
2023/11/26 08:25:00;0.00;0.00;0.62;0.00;0.00;0.62;3.13;2.33;;;19.30;26.10;;;;;;2269438;61;20357;-59
2023/11/26 08:27:45;0.00;0.00;0.62;0.00;0.00;0.62;3.53;2.30;;;19.30;26.10;;;;;;2272798;61;20420;-67
2023/11/26 08:30:32;0.00;0.00;0.62;0.00;0.00;0.62;3.40;2.70;;;19.30;26.10;;;;;;2272724;61;20393;-56
2023/11/26 08:33:20;0.00;0.00;0.62;0.00;0.00;0.62;3.13;1.97;;;19.30;26.20;;;;;;2271934;61;20520;-60
2023/11/26 08:36:07;0.00;0.00;0.62;0.00;0.00;0.62;3.17;2.20;;;19.30;26.10;;;;;;2272739;61;20359;-59
2023/11/26 08:38:52;0.00;0.00;0.62;0.00;0.00;0.62;3.43;2.20;;;19.30;26.10;;;;;;2272650;61;20811;-59
2023/11/26 08:41:37;0.00;0.00;0.62;0.00;0.00;0.62;3.30;2.43;;;19.20;26.10;;;;;;2271809;61;20400;-61
2023/11/26 08:44:22;0.00;0.00;0.62;0.00;0.00;0.62;4.03;3.03;;;19.30;26.10;;;;;;2272704;61;20948;-60
2023/11/26 08:47:08;0.00;0.00;0.62;0.00;0.00;0.62;3.30;2.37;;;19.30;26.20;;;;;;2272643;61;20451;-65
2023/11/26 08:49:52;0.00;0.00;0.62;0.00;0.00;0.62;3.60;2.30;;;19.30;26.10;;;;;;2272392;61;20520;-58
2023/11/26 08:52:38;0.00;0.00;0.62;0.00;0.00;0.62;3.83;2.97;;;19.30;26.10;;;;;;2272286;61;20416;-60
2023/11/26 08:55:22;0.00;0.00;0.62;0.00;0.00;0.62;4.00;2.83;;;19.20;26.10;;;;;;2272193;61;20409;-56
2023/11/26 08:58:07;0.00;0.00;0.62;0.00;0.00;0.62;4.03;2.80;;;19.30;26.10;;;;;;2272425;61;20374;-61
2023/11/26 09:00:51;0.00;0.00;0.62;0.00;0.00;0.62;2.97;2.27;;;19.30;26.10;;;;;;2272895;61;20481;-60
2023/11/26 09:03:37;0.00;0.00;0.62;0.00;0.00;0.62;3.10;2.43;;;19.30;26.10;;;;;;2271880;61;20362;-61
2023/11/26 09:06:22;0.00;0.00;0.62;0.00;0.00;0.62;3.33;2.87;;;19.20;26.00;;;;;;2272666;61;20363;-59
2023/11/26 09:09:07;0.00;0.00;0.62;0.00;0.00;0.62;3.73;2.70;;;19.30;26.10;;;;;;2272610;61;20472;-60
2023/11/26 09:11:51;0.00;0.00;0.62;0.00;0.00;0.62;3.50;2.60;;;19.30;26.10;;;;;;2272014;61;20362;-58
2023/11/26 09:14:36;0.00;0.00;0.62;0.00;0.00;0.62;4.10;3.13;;;19.30;26.10;;;;;;2272571;61;20385;-60
2023/11/26 09:17:21;0.00;0.00;0.62;0.00;0.00;0.62;3.17;1.97;;;19.20;26.00;;;;;;2272161;60;20373;-59
2023/11/26 09:20:11;0.00;0.00;0.62;0.00;0.00;0.62;4.33;2.60;;;19.20;26.00;;;;;;2272619;61;20382;-59
2023/11/26 09:22:56;0.00;0.00;0.62;0.00;0.00;0.62;3.10;2.30;;;19.30;26.10;;;;;;2272292;61;20362;-61
2023/11/26 09:25:40;0.00;0.00;0.62;0.00;0.00;0.62;3.90;2.30;;;19.20;26.00;;;;;;2272161;61;20408;-58
2023/11/26 09:28:25;0.00;0.00;0.62;0.00;0.00;0.62;3.43;2.67;;;19.30;26.10;;;;;;2272932;61;20444;-60
2023/11/26 09:31:10;0.00;0.00;0.62;0.00;0.00;0.62;4.37;3.53;;;19.30;26.10;;;;;;2272432;61;20370;-58
2023/11/26 09:33:54;0.00;0.00;0.62;0.00;0.00;0.62;3.60;2.90;;;19.30;26.10;;;;;;2271892;61;20386;-59
2023/11/26 09:36:41;0.00;0.00;0.62;0.00;0.00;0.62;3.97;2.70;;;19.30;26.10;;;;;;2272596;61;20403;-59
2023/11/26 09:39:26;0.00;0.00;0.62;0.00;0.00;0.62;3.33;2.40;;;19.30;26.10;;;;;;2272155;61;20378;-57
2023/11/26 09:42:12;0.00;0.00;0.62;0.00;0.00;0.62;3.33;2.73;;;19.30;26.10;;;;;;2272006;61;20430;-61
2023/11/26 09:44:56;0.00;0.00;0.62;0.00;0.00;0.62;2.90;2.33;;;19.20;26.00;;;;;;2272422;61;20362;-60
2023/11/26 09:47:41;0.00;0.00;0.62;0.00;0.00;0.62;4.17;2.87;;;19.30;26.10;;;;;;2272210;61;20362;-58
2023/11/26 09:50:28;0.00;0.00;0.62;0.00;0.00;0.62;3.80;3.07;;;19.30;26.10;;;;;;2272596;61;20397;-60
2023/11/26 09:53:14;0.00;0.00;0.62;0.00;0.00;0.62;3.53;2.93;;;19.30;26.10;;;;;;2271916;61;20421;-62
2023/11/26 09:55:59;0.00;0.00;0.62;0.00;0.00;0.62;3.13;2.37;;;19.30;26.10;;;;;;2272367;61;20419;-65
2023/11/26 09:58:43;0.00;0.00;0.62;0.00;0.00;0.62;3.50;2.63;;;19.20;26.00;;;;;;2272407;61;20389;-56
2023/11/26 10:01:28;0.00;0.00;0.62;0.00;0.00;0.62;3.43;2.40;;;19.30;26.10;;;;;;2269089;61;20759;-57
2023/11/26 10:04:13;0.00;0.00;0.62;0.00;0.00;0.62;3.20;2.70;;;19.30;26.10;;;;;;2272538;61;20761;-60
2023/11/26 10:06:57;0.00;0.00;0.62;0.00;0.00;0.62;3.80;2.70;;;19.30;26.10;;;;;;2272626;61;20418;-62
2023/11/26 10:09:59;0.00;0.00;0.62;0.00;0.00;0.62;3.87;2.63;;;19.30;26.10;;;;;;2268746;61;20382;-67
2023/11/26 10:12:52;0.00;0.00;0.62;0.00;0.00;0.62;3.23;2.47;;;19.30;26.10;;;;;;2272234;61;20791;-61
2023/11/26 10:15:42;0.00;0.00;0.62;0.00;0.00;0.62;3.37;2.40;;;19.30;26.10;;;;;;2272463;61;20363;-61
2023/11/26 10:18:41;0.00;0.00;0.62;0.00;0.00;0.62;3.00;2.30;;;19.30;26.10;;;;;;2272133;61;20492;-61
2023/11/26 10:21:26;0.00;0.00;0.62;0.00;0.00;0.62;3.40;2.13;;;19.30;26.10;;;;;;2272427;61;20909;-59
2023/11/26 10:24:20;0.00;0.00;0.62;0.00;0.00;0.62;3.33;2.53;;;19.20;26.00;;;;;;2272410;61;20440;-59
2023/11/26 10:27:13;0.00;0.00;0.62;0.00;0.00;0.62;3.43;2.53;;;19.30;26.10;;;;;;2273973;61;20418;-55
2023/11/26 10:29:58;0.00;0.00;0.62;0.00;0.00;0.62;3.40;2.33;;;19.20;26.00;;;;;;2274921;61;20431;-57
2023/11/26 10:32:55;0.00;0.00;0.62;0.00;0.00;0.62;3.57;2.40;;;19.30;26.10;;;;;;2274058;61;20428;-57
2023/11/26 10:35:48;0.00;0.00;0.62;0.00;0.00;0.62;2.27;2.00;;;19.20;26.10;;;;;;2274837;61;20785;-59
2023/11/26 10:38:35;0.00;0.00;0.62;0.00;0.00;0.62;3.30;2.30;;;19.30;26.10;;;;;;2274548;61;20385;-58
2023/11/26 10:41:21;0.00;0.00;0.62;0.00;0.00;0.62;2.90;2.23;;;19.30;26.10;;;;;;2271587;61;20416;-63
2023/11/26 10:44:08;0.00;0.00;0.62;0.00;0.00;0.62;2.83;2.00;;;19.30;26.10;;;;;;2272224;61;20378;-56
2023/11/26 10:46:59;0.00;0.00;0.62;0.00;0.00;0.62;2.30;1.90;;;19.30;26.10;;;;;;2275547;61;20366;-57
2023/11/26 10:49:51;0.00;0.00;0.62;0.00;0.00;0.62;2.93;2.17;;;19.20;26.00;;;;;;2275148;61;20834;-53
2023/11/26 10:52:42;0.00;0.00;0.62;0.00;0.00;0.62;3.60;2.50;;;19.20;26.00;;;;;;2275066;61;20925;-52
2023/11/26 10:55:34;0.00;0.00;0.62;0.00;0.00;0.62;2.93;2.10;;;19.20;26.00;;;;;;2275228;61;20358;-55
2023/11/26 10:58:22;0.00;0.00;0.62;0.00;0.00;0.62;3.07;1.70;;;19.30;26.10;;;;;;2275268;61;20350;-54